Currently 65°F in Beaumont, California, USA
65°F
65°F / 48°F
7 mph SW
0.00"
Sunday, May 20, 2018 12:43 PM PDT

Beaumont, California Weather Summary
Last 36 Hours

Temperature Winds Hourly Humidity Dewpoint
Time Report Norm Report Norm Max Gusts Precip. Rpt. Norm Rpt. Norm Pressure
1Sun 12:43 PM  64.8°F  68°F  7 mph SW  4 mph  9 mph  0.00"  60%  48%  50°F  47°F  29.84"
2Sun 12:37 PM  64.8°F  68°F  7 mph NW  5 mph  9 mph  ----  60%  48%  50°F  47°F  29.84"
Sun 12:00 PM  63.0°F  66°F  2 mph SW  5 mph  14 mph  0.00"  65%  50%  51°F  47°F  29.85"
Sun 11:00 AM  59.2°F  64°F  5 mph SW  4 mph  12 mph  0.00"  74%  54%  51°F  47°F  29.85"
Sun 10:00 AM  52.3°F  62°F  4 mph S  4 mph  6 mph  0.00"  91%  59%  50°F  47°F  29.86"
Sun 09:00 AM  49.5°F  60°F  calm  3 mph  8 mph  0.00"  96%  64%  48°F  47°F  29.87"
Sun 08:00 AM  49.3°F  57°F  calm  3 mph  6 mph  0.00"  97%  68%  48°F  46°F  29.86"
Sun 07:00 AM  48.6°F  55°F  calm  2 mph  6 mph  0.00"  96%  70%  47°F  45°F  29.86"
Sun 06:00 AM  48.4°F  53°F  calm  2 mph  5 mph  0.00"  96%  72%  47°F  44°F  29.84"
3Sun 05:11 AM  48.4°F  53°F  calm  2 mph  5 mph  ----  96%  73%  47°F  44°F  29.83"
Sun 05:00 AM  48.6°F  53°F  calm  2 mph  8 mph  0.00"  96%  73%  47°F  44°F  29.82"
Sun 04:00 AM  48.9°F  53°F  calm  2 mph  7 mph  0.00"  95%  73%  47°F  45°F  29.82"
Sun 03:00 AM  49.3°F  54°F  2 mph NW  2 mph  8 mph  0.00"  95%  72%  48°F  45°F  29.82"
Sun 02:00 AM  49.6°F  54°F  1 mph W  2 mph  7 mph  0.00"  94%  72%  48°F  45°F  29.83"
Sun 01:00 AM  49.8°F  55°F  1 mph NW  2 mph  8 mph  0.00"  94%  72%  48°F  46°F  29.82"
Sun 12:00 AM  50.0°F  55°F  calm  2 mph  9 mph  0.00"  93%  71%  48°F  46°F  29.84"
Sat 11:00 PM  50.2°F  56°F  calm  2 mph  8 mph  0.00"  92%  70%  48°F  46°F  29.85"
Sat 10:00 PM  53.1°F  58°F  calm  2 mph  14 mph  0.00"  83%  67%  48°F  47°F  29.84"
Sat 09:00 PM  54.7°F  60°F  8 mph NW  3 mph  13 mph  0.00"  80%  64%  48°F  47°F  29.83"
Sat 08:00 PM  55.9°F  62°F  7 mph W  3 mph  17 mph  0.00"  77%  58%  49°F  47°F  29.82"
Sat 07:00 PM  59.2°F  65°F  6 mph NW  3 mph  14 mph  0.00"  68%  52%  48°F  46°F  29.81"
Sat 06:00 PM  63.0°F  69°F  5 mph SW  4 mph  12 mph  0.00"  60%  46%  48°F  46°F  29.80"
Sat 05:00 PM  65.7°F  70°F  3 mph SW  4 mph  12 mph  0.00"  54%  43%  48°F  46°F  29.80"
Sat 04:00 PM  66.6°F  71°F  3 mph SW  4 mph  12 mph  0.00"  54%  42%  49°F  46°F  29.80"
Sat 03:00 PM  64.9°F  71°F  3 mph W  4 mph  12 mph  0.00"  58%  42%  49°F  46°F  29.83"
Sat 02:00 PM  63.3°F  70°F  7 mph SW  4 mph  17 mph  0.00"  61%  43%  49°F  46°F  29.84"
Sat 01:00 PM  61.9°F  69°F  6 mph SW  5 mph  12 mph  0.00"  63%  46%  49°F  46°F  29.85"
Sat 12:00 PM  58.8°F  67°F  3 mph SW  5 mph  12 mph  0.00"  70%  48%  49°F  46°F  29.85"
Sat 11:00 AM  55.0°F  65°F  3 mph SW  4 mph  12 mph  0.00"  79%  52%  48°F  46°F  29.86"
Sat 10:00 AM  52.9°F  63°F  3 mph SW  4 mph  10 mph  0.00"  85%  57%  48°F  47°F  29.86"
Sat 09:00 AM  48.0°F  60°F  3 mph W  3 mph  9 mph  0.00"  96%  61%  47°F  46°F  29.87"
Sat 08:00 AM  46.6°F  58°F  2 mph SW  3 mph  8 mph  0.00"  96%  66%  45°F  46°F  29.86"
Sat 07:00 AM  45.9°F  55°F  1 mph W  2 mph  9 mph  0.00"  96%  68%  45°F  45°F  29.85"
Sat 06:00 AM  45.7°F  54°F  1 mph NW  2 mph  7 mph  0.00"  95%  70%  44°F  44°F  29.83"
Sat 05:00 AM  44.1°F  53°F  calm  2 mph  3 mph  0.00"  92%  71%  42°F  44°F  29.83"
Sat 04:00 AM  48.2°F  54°F  calm  2 mph  3 mph  0.00"  91%  70%  46°F  44°F  29.83"
Sat 03:00 AM  48.0°F  54°F  calm  2 mph  9 mph  0.00"  90%  70%  45°F  44°F  29.84"
Sat 02:00 AM  46.9°F  55°F  1 mph W  2 mph  9 mph  0.00"  92%  70%  45°F  45°F  29.85"
Sat 01:00 AM  46.8°F  55°F  calm  2 mph  8 mph  0.00"  91%  70%  44°F  45°F  29.86"

  1. Current weather data. No green row appears if the current weather data is also the high or low for the current day.
  2. High temperature for the current day.
  3. Low temperature for the current day.

The Beaumont, California weather pages are a service of WeatherCurrents. Cherry Valley is located in northern Riverside County, California, a community of the northern part of Beaumont, along the Interstate 10 highway, in the San Gorgonio pass area, between the communities of Calimesa, Banning.
Copyright ©Sun May 20 12:46:59 PDT 2018  WeatherCurrents. All rights reserved. - Submit questions and comments - Privacy Policy

This page automatically refreshes every 10 minutes.